Friday, November 17, 2017, 7:30 PM GMT
Back to Local

CWVU, Brier Island, N. S.

Location: , , Canada Lat: 44.286
Local Time: 7:30 PM GMT (19:30 GMT) Lon: -66.347
Time Zone: GMT Elev: 52 ft

Show me the last for .
Show Coded

Time T Td Feel RH Dir Speed Gust Alt SLP Vis Weather Sky Remarks
2017-11-17 19:00 43 38 30 83 290° 38 46 - 29.57 0 Peak wind: 47 mph (41 kts) from 290° at 01 min
2017-11-17 18:00 43 38 31 82 300° 41 47 - 29.55 0 Peak wind: 51 mph (45 kts) from 290° at 07 min
2017-11-17 17:00 45 39 32 81 290° 43 52 - 29.53 0 Peak wind: 51 mph (45 kts) from 290° at 58 min
2017-11-17 16:00 45 39 33 80 290° 41 47 - 29.52 0 Peak wind: 50 mph (44 kts) from 290° at 25 min
2017-11-17 15:00 45 39 33 80 290° 40 48 - 29.52 0 Peak wind: 48 mph (42 kts) from 290° at 58 min
2017-11-17 14:00 45 40 33 83 280° 38 46 - 29.51 0 Peak wind: 49 mph (43 kts) from 280° at 26 min
2017-11-17 13:00 45 40 33 82 280° 40 46 - 29.49 0 Peak wind: 48 mph (42 kts) from 280° at 09 min
2017-11-17 12:00 42 40 29 94 280° 39 46 - 29.49 0 Peak wind: 47 mph (41 kts) from 280° at 27 min
1-hr Precip Total: 0.01"
2017-11-17 11:00 43 40 31 90 270° 38 44 - 29.47 0 Peak wind: 47 mph (41 kts) from 270° at 13 min
2017-11-17 10:00 44 40 32 87 260° 37 45 - 29.45 0 Peak wind: 44 mph (39 kts) from 260° at 56 min
2017-11-17 09:00 44 41 33 88 260° 32 40 - 29.45 0 Peak wind: 43 mph (38 kts) from 260° at 32 min
2017-11-17 08:00 44 42 33 91 270° 32 39 - 29.44 0 Peak wind: 42 mph (37 kts) from 260° at 18 min
2017-11-17 07:00 46 42 36 85 260° 30 38 - 29.44 0 Peak wind: 41 mph (36 kts) from 280° at 01 min
1-hr Precip Total: 0.01"
2017-11-17 06:00 48 46 37 92 280° 35 41 - 29.41 0 Peak wind: 41 mph (36 kts) from 280° at 56 min
2017-11-17 05:00 53 52 - 94 140° 26 32 - 29.39 0 Peak wind: 33 mph (29 kts) from 130° at 38 min
Pressure falling rapidly
1-hr Precip Total: 0.03"
2017-11-17 04:00 50 49 - 95 350° 8 - - 29.47 0 Pressure falling rapidly
1-hr Precip Total: 0.16"
2017-11-17 03:00 48 47 45 94 90° 8 - - 29.58 0 Pressure falling rapidly
1-hr Precip Total: 0.14"
2017-11-17 02:00 48 46 47 92 180° 3 - - 29.65 0 1-hr Precip Total: 0.17"
2017-11-17 01:00 50 47 47 92 220° 7 - - 29.69 0 Peak wind: 27 mph (24 kts) from 140° at 08 min
1-hr Precip Total: 0.04"
2017-11-17 00:00 52 49 - 90 130° 24 - - 29.72 0 Peak wind: 31 mph (27 kts) from 100° at 06 min
1-hr Precip Total: 0.02"
2017-11-16 23:00 51 48 - 86 110° 24 31 - 29.75 0 Peak wind: 32 mph (28 kts) from 100° at 25 min
2017-11-16 22:00 51 47 - 86 110° 24 30 - 29.77 0 Peak wind: 35 mph (31 kts) from 120° at 02 min
2017-11-16 21:00 50 46 41 87 110° 30 37 - 29.80 0 Peak wind: 36 mph (32 kts) from 100° at 46 min
2017-11-16 20:00 50 45 - 82 110° 26 37 - 29.84 0 Peak wind: 36 mph (32 kts) from 120° at 50 min
Pressure falling rapidly

Support USWX by starting your Amazon purchase here.